sensor_id;sensor_type;location;lat;lon;timestamp;P1;durP1;ratioP1;P2;durP2;ratioP2
48205;SDS011;33995;48.202;16.260;2022-07-29T00:01:55;5.83;;;5.23;;
48205;SDS011;33995;48.202;16.260;2022-07-29T00:04:26;5.50;;;5.00;;
48205;SDS011;33995;48.202;16.260;2022-07-29T00:06:55;6.17;;;4.73;;
48205;SDS011;33995;48.202;16.260;2022-07-29T00:09:26;4.90;;;4.37;;
48205;SDS011;33995;48.202;16.260;2022-07-29T00:11:55;5.30;;;4.80;;
48205;SDS011;33995;48.202;16.260;2022-07-29T00:14:27;5.17;;;4.67;;
48205;SDS011;33995;48.202;16.260;2022-07-29T00:16:56;5.27;;;4.77;;
48205;SDS011;33995;48.202;16.260;2022-07-29T00:19:24;6.87;;;5.07;;
48205;SDS011;33995;48.202;16.260;2022-07-29T00:21:58;5.50;;;5.00;;
48205;SDS011;33995;48.202;16.260;2022-07-29T00:24:29;5.70;;;5.20;;
48205;SDS011;33995;48.202;16.260;2022-07-29T00:27:00;5.13;;;4.63;;
48205;SDS011;33995;48.202;16.260;2022-07-29T00:29:28;5.60;;;5.03;;
48205;SDS011;33995;48.202;16.260;2022-07-29T00:32:02;5.47;;;4.60;;
48205;SDS011;33995;48.202;16.260;2022-07-29T00:34:33;5.33;;;4.83;;
48205;SDS011;33995;48.202;16.260;2022-07-29T00:37:24;5.40;;;4.90;;
48205;SDS011;33995;48.202;16.260;2022-07-29T00:39:53;5.60;;;4.97;;
48205;SDS011;33995;48.202;16.260;2022-07-29T00:42:24;5.30;;;4.80;;
48205;SDS011;33995;48.202;16.260;2022-07-29T00:44:53;5.20;;;4.70;;
48205;SDS011;33995;48.202;16.260;2022-07-29T00:47:24;5.40;;;4.90;;
48205;SDS011;33995;48.202;16.260;2022-07-29T00:49:52;5.07;;;4.60;;
48205;SDS011;33995;48.202;16.260;2022-07-29T00:52:21;5.27;;;4.77;;
48205;SDS011;33995;48.202;16.260;2022-07-29T00:54:49;5.53;;;5.03;;
48205;SDS011;33995;48.202;16.260;2022-07-29T00:57:21;5.37;;;4.90;;
48205;SDS011;33995;48.202;16.260;2022-07-29T00:59:49;6.70;;;4.93;;
48205;SDS011;33995;48.202;16.260;2022-07-29T01:02:17;5.50;;;5.00;;
48205;SDS011;33995;48.202;16.260;2022-07-29T01:04:48;5.67;;;4.90;;
48205;SDS011;33995;48.202;16.260;2022-07-29T01:07:32;5.60;;;5.07;;
48205;SDS011;33995;48.202;16.260;2022-07-29T01:10:04;5.23;;;4.80;;
48205;SDS011;33995;48.202;16.260;2022-07-29T01:12:35;5.20;;;4.70;;
48205;SDS011;33995;48.202;16.260;2022-07-29T01:15:06;5.33;;;4.93;;
48205;SDS011;33995;48.202;16.260;2022-07-29T01:29:44;5.50;;;5.00;;
48205;SDS011;33995;48.202;16.260;2022-07-29T01:32:24;6.63;;;5.20;;
48205;SDS011;33995;48.202;16.260;2022-07-29T01:35:16;5.70;;;5.30;;
48205;SDS011;33995;48.202;16.260;2022-07-29T01:40:53;5.83;;;5.33;;
48205;SDS011;33995;48.202;16.260;2022-07-29T01:43:38;5.63;;;5.20;;
48205;SDS011;33995;48.202;16.260;2022-07-29T01:46:27;5.63;;;5.23;;
48205;SDS011;33995;48.202;16.260;2022-07-29T01:49:11;6.03;;;5.50;;
48205;SDS011;33995;48.202;16.260;2022-07-29T01:51:47;6.17;;;5.53;;
48205;SDS011;33995;48.202;16.260;2022-07-29T01:54:30;6.17;;;5.57;;
48205;SDS011;33995;48.202;16.260;2022-07-29T01:57:03;6.10;;;5.50;;
48205;SDS011;33995;48.202;16.260;2022-07-29T01:59:34;6.17;;;5.60;;
48205;SDS011;33995;48.202;16.260;2022-07-29T02:02:07;6.20;;;5.70;;
48205;SDS011;33995;48.202;16.260;2022-07-29T02:04:37;6.30;;;5.40;;
48205;SDS011;33995;48.202;16.260;2022-07-29T02:07:07;6.70;;;6.10;;
48205;SDS011;33995;48.202;16.260;2022-07-29T02:09:41;6.30;;;5.80;;
48205;SDS011;33995;48.202;16.260;2022-07-29T02:12:18;6.30;;;5.70;;
48205;SDS011;33995;48.202;16.260;2022-07-29T02:14:49;6.13;;;5.63;;
48205;SDS011;33995;48.202;16.260;2022-07-29T02:17:23;6.30;;;5.80;;
48205;SDS011;33995;48.202;16.260;2022-07-29T02:20:02;6.70;;;6.07;;
48205;SDS011;33995;48.202;16.260;2022-07-29T02:22:33;7.20;;;6.13;;
48205;SDS011;33995;48.202;16.260;2022-07-29T02:25:10;6.20;;;5.60;;
48205;SDS011;33995;48.202;16.260;2022-07-29T02:27:41;6.40;;;5.80;;
48205;SDS011;33995;48.202;16.260;2022-07-29T02:30:13;6.07;;;5.57;;
48205;SDS011;33995;48.202;16.260;2022-07-29T02:32:45;7.40;;;6.03;;
48205;SDS011;33995;48.202;16.260;2022-07-29T02:35:17;6.90;;;6.20;;
48205;SDS011;33995;48.202;16.260;2022-07-29T02:37:47;6.37;;;5.83;;
48205;SDS011;33995;48.202;16.260;2022-07-29T02:40:40;6.50;;;5.90;;
48205;SDS011;33995;48.202;16.260;2022-07-29T02:43:19;6.60;;;5.60;;
48205;SDS011;33995;48.202;16.260;2022-07-29T02:45:51;5.97;;;5.47;;
48205;SDS011;33995;48.202;16.260;2022-07-29T02:48:21;6.13;;;5.63;;
48205;SDS011;33995;48.202;16.260;2022-07-29T02:50:57;6.67;;;6.00;;
48205;SDS011;33995;48.202;16.260;2022-07-29T02:53:34;6.60;;;5.87;;
48205;SDS011;33995;48.202;16.260;2022-07-29T02:56:13;6.60;;;6.00;;
48205;SDS011;33995;48.202;16.260;2022-07-29T02:58:46;6.50;;;6.00;;
48205;SDS011;33995;48.202;16.260;2022-07-29T03:01:23;6.53;;;5.93;;
48205;SDS011;33995;48.202;16.260;2022-07-29T03:04:07;6.60;;;6.00;;
48205;SDS011;33995;48.202;16.260;2022-07-29T03:06:37;6.50;;;5.90;;
48205;SDS011;33995;48.202;16.260;2022-07-29T03:09:13;6.70;;;6.20;;
48205;SDS011;33995;48.202;16.260;2022-07-29T03:11:45;6.57;;;5.97;;
48205;SDS011;33995;48.202;16.260;2022-07-29T03:14:17;7.07;;;6.47;;
48205;SDS011;33995;48.202;16.260;2022-07-29T03:16:47;7.00;;;6.40;;
48205;SDS011;33995;48.202;16.260;2022-07-29T03:19:17;7.00;;;6.30;;
48205;SDS011;33995;48.202;16.260;2022-07-29T03:21:48;7.77;;;6.30;;
48205;SDS011;33995;48.202;16.260;2022-07-29T03:24:30;7.27;;;6.57;;
48205;SDS011;33995;48.202;16.260;2022-07-29T03:27:03;7.10;;;6.17;;
48205;SDS011;33995;48.202;16.260;2022-07-29T03:29:34;6.70;;;6.10;;
48205;SDS011;33995;48.202;16.260;2022-07-29T03:32:04;6.67;;;6.07;;
48205;SDS011;33995;48.202;16.260;2022-07-29T03:34:36;6.63;;;6.07;;
48205;SDS011;33995;48.202;16.260;2022-07-29T03:37:07;7.13;;;6.47;;
48205;SDS011;33995;48.202;16.260;2022-07-29T03:39:38;6.60;;;6.00;;
48205;SDS011;33995;48.202;16.260;2022-07-29T03:42:10;7.17;;;6.47;;
48205;SDS011;33995;48.202;16.260;2022-07-29T03:44:45;6.90;;;6.30;;
48205;SDS011;33995;48.202;16.260;2022-07-29T03:47:17;6.83;;;6.23;;
48205;SDS011;33995;48.202;16.260;2022-07-29T03:50:11;7.87;;;6.80;;
48205;SDS011;33995;48.202;16.260;2022-07-29T03:52:42;7.10;;;6.47;;
48205;SDS011;33995;48.202;16.260;2022-07-29T03:55:13;7.60;;;6.90;;
48205;SDS011;33995;48.202;16.260;2022-07-29T03:57:56;6.70;;;6.10;;
48205;SDS011;33995;48.202;16.260;2022-07-29T04:00:27;7.13;;;6.53;;
48205;SDS011;33995;48.202;16.260;2022-07-29T04:02:57;6.67;;;6.07;;
48205;SDS011;33995;48.202;16.260;2022-07-29T04:05:29;7.37;;;6.70;;
48205;SDS011;33995;48.202;16.260;2022-07-29T04:07:57;8.57;;;7.67;;
48205;SDS011;33995;48.202;16.260;2022-07-29T04:10:27;12.67;;;10.77;;
48205;SDS011;33995;48.202;16.260;2022-07-29T04:13:02;15.20;;;11.57;;
48205;SDS011;33995;48.202;16.260;2022-07-29T04:15:31;11.00;;;9.57;;
48205;SDS011;33995;48.202;16.260;2022-07-29T04:18:00;11.43;;;10.13;;
48205;SDS011;33995;48.202;16.260;2022-07-29T04:20:28;13.13;;;10.60;;
48205;SDS011;33995;48.202;16.260;2022-07-29T04:22:58;12.10;;;10.80;;
48205;SDS011;33995;48.202;16.260;2022-07-29T04:25:28;10.50;;;9.40;;
48205;SDS011;33995;48.202;16.260;2022-07-29T04:27:56;10.67;;;9.23;;
48205;SDS011;33995;48.202;16.260;2022-07-29T04:30:33;9.50;;;8.50;;
48205;SDS011;33995;48.202;16.260;2022-07-29T04:33:06;8.97;;;8.07;;
48205;SDS011;33995;48.202;16.260;2022-07-29T04:35:37;8.70;;;7.83;;
48205;SDS011;33995;48.202;16.260;2022-07-29T04:38:20;7.93;;;7.13;;
48205;SDS011;33995;48.202;16.260;2022-07-29T04:40:50;7.97;;;7.27;;
48205;SDS011;33995;48.202;16.260;2022-07-29T04:43:19;7.40;;;6.80;;
48205;SDS011;33995;48.202;16.260;2022-07-29T04:45:50;7.87;;;7.07;;
48205;SDS011;33995;48.202;16.260;2022-07-29T04:48:23;7.13;;;6.53;;
48205;SDS011;33995;48.202;16.260;2022-07-29T04:50:56;6.90;;;6.30;;
48205;SDS011;33995;48.202;16.260;2022-07-29T04:53:25;7.60;;;6.90;;
48205;SDS011;33995;48.202;16.260;2022-07-29T04:55:53;7.13;;;6.53;;
48205;SDS011;33995;48.202;16.260;2022-07-29T04:58:37;7.33;;;6.47;;
48205;SDS011;33995;48.202;16.260;2022-07-29T05:01:08;7.00;;;6.40;;
48205;SDS011;33995;48.202;16.260;2022-07-29T05:03:37;8.00;;;6.60;;
48205;SDS011;33995;48.202;16.260;2022-07-29T05:06:08;7.30;;;6.70;;
48205;SDS011;33995;48.202;16.260;2022-07-29T05:08:36;7.97;;;6.73;;
48205;SDS011;33995;48.202;16.260;2022-07-29T05:11:06;6.97;;;6.37;;
48205;SDS011;33995;48.202;16.260;2022-07-29T05:13:39;7.73;;;6.50;;
48205;SDS011;33995;48.202;16.260;2022-07-29T05:16:13;7.00;;;6.40;;
48205;SDS011;33995;48.202;16.260;2022-07-29T05:18:46;7.50;;;6.60;;
48205;SDS011;33995;48.202;16.260;2022-07-29T05:21:19;7.20;;;6.50;;
48205;SDS011;33995;48.202;16.260;2022-07-29T05:23:48;6.77;;;6.00;;
48205;SDS011;33995;48.202;16.260;2022-07-29T05:26:19;7.20;;;6.47;;
48205;SDS011;33995;48.202;16.260;2022-07-29T05:28:50;7.00;;;6.30;;
48205;SDS011;33995;48.202;16.260;2022-07-29T05:31:33;6.90;;;6.30;;
48205;SDS011;33995;48.202;16.260;2022-07-29T05:34:16;6.77;;;6.10;;
48205;SDS011;33995;48.202;16.260;2022-07-29T05:36:45;6.70;;;6.10;;
48205;SDS011;33995;48.202;16.260;2022-07-29T05:39:23;6.50;;;5.90;;
48205;SDS011;33995;48.202;16.260;2022-07-29T05:42:12;7.07;;;6.40;;
48205;SDS011;33995;48.202;16.260;2022-07-29T05:44:43;6.80;;;6.20;;
48205;SDS011;33995;48.202;16.260;2022-07-29T05:47:26;6.50;;;5.93;;
48205;SDS011;33995;48.202;16.260;2022-07-29T05:49:56;8.23;;;6.20;;
48205;SDS011;33995;48.202;16.260;2022-07-29T05:52:24;6.27;;;5.67;;
48205;SDS011;33995;48.202;16.260;2022-07-29T05:54:55;6.37;;;5.77;;
48205;SDS011;33995;48.202;16.260;2022-07-29T05:57:24;6.30;;;5.70;;
48205;SDS011;33995;48.202;16.260;2022-07-29T05:59:55;6.63;;;5.73;;
48205;SDS011;33995;48.202;16.260;2022-07-29T06:02:23;5.63;;;5.13;;
48205;SDS011;33995;48.202;16.260;2022-07-29T06:04:56;7.13;;;5.77;;
48205;SDS011;33995;48.202;16.260;2022-07-29T06:07:24;6.43;;;5.90;;
48205;SDS011;33995;48.202;16.260;2022-07-29T06:09:56;6.37;;;5.87;;
48205;SDS011;33995;48.202;16.260;2022-07-29T06:12:24;6.37;;;5.83;;
48205;SDS011;33995;48.202;16.260;2022-07-29T06:14:55;5.83;;;5.33;;
48205;SDS011;33995;48.202;16.260;2022-07-29T06:17:25;6.73;;;5.77;;
48205;SDS011;33995;48.202;16.260;2022-07-29T06:19:57;6.17;;;5.33;;
48205;SDS011;33995;48.202;16.260;2022-07-29T06:22:25;6.53;;;5.50;;
48205;SDS011;33995;48.202;16.260;2022-07-29T06:24:53;6.23;;;5.70;;
48205;SDS011;33995;48.202;16.260;2022-07-29T06:27:37;6.30;;;5.33;;
48205;SDS011;33995;48.202;16.260;2022-07-29T06:30:08;6.10;;;5.60;;
48205;SDS011;33995;48.202;16.260;2022-07-29T06:32:38;6.80;;;5.53;;
48205;SDS011;33995;48.202;16.260;2022-07-29T06:35:16;6.10;;;5.50;;
48205;SDS011;33995;48.202;16.260;2022-07-29T06:38:04;6.20;;;5.60;;
48205;SDS011;33995;48.202;16.260;2022-07-29T06:40:56;6.67;;;5.30;;
48205;SDS011;33995;48.202;16.260;2022-07-29T06:43:48;7.83;;;5.67;;
48205;SDS011;33995;48.202;16.260;2022-07-29T06:46:25;6.00;;;5.50;;
48205;SDS011;33995;48.202;16.260;2022-07-29T06:48:55;5.83;;;5.33;;
48205;SDS011;33995;48.202;16.260;2022-07-29T06:51:24;6.43;;;5.60;;
48205;SDS011;33995;48.202;16.260;2022-07-29T06:53:54;6.07;;;5.50;;
48205;SDS011;33995;48.202;16.260;2022-07-29T06:56:30;6.20;;;5.60;;
48205;SDS011;33995;48.202;16.260;2022-07-29T06:59:06;5.90;;;5.40;;
48205;SDS011;33995;48.202;16.260;2022-07-29T07:01:38;6.20;;;5.60;;
48205;SDS011;33995;48.202;16.260;2022-07-29T07:04:09;6.10;;;5.50;;
48205;SDS011;33995;48.202;16.260;2022-07-29T07:06:43;6.03;;;5.50;;
48205;SDS011;33995;48.202;16.260;2022-07-29T07:09:19;6.50;;;5.77;;
48205;SDS011;33995;48.202;16.260;2022-07-29T07:12:07;6.30;;;5.70;;
48205;SDS011;33995;48.202;16.260;2022-07-29T07:14:35;6.10;;;5.50;;
48205;SDS011;33995;48.202;16.260;2022-07-29T07:17:05;7.43;;;5.70;;
48205;SDS011;33995;48.202;16.260;2022-07-29T07:19:35;6.07;;;5.40;;
48205;SDS011;33995;48.202;16.260;2022-07-29T07:22:03;5.90;;;5.30;;
48205;SDS011;33995;48.202;16.260;2022-07-29T07:24:34;6.47;;;5.40;;
48205;SDS011;33995;48.202;16.260;2022-07-29T07:27:02;6.07;;;5.47;;
48205;SDS011;33995;48.202;16.260;2022-07-29T07:29:32;6.53;;;5.60;;
48205;SDS011;33995;48.202;16.260;2022-07-29T07:32:03;5.93;;;5.43;;
48205;SDS011;33995;48.202;16.260;2022-07-29T07:34:33;5.67;;;5.27;;
48205;SDS011;33995;48.202;16.260;2022-07-29T07:37:03;5.80;;;5.30;;
48205;SDS011;33995;48.202;16.260;2022-07-29T07:39:34;6.13;;;5.57;;
48205;SDS011;33995;48.202;16.260;2022-07-29T07:42:04;6.30;;;5.60;;
48205;SDS011;33995;48.202;16.260;2022-07-29T07:44:35;5.97;;;5.40;;
48205;SDS011;33995;48.202;16.260;2022-07-29T07:47:25;6.57;;;5.30;;
48205;SDS011;33995;48.202;16.260;2022-07-29T07:50:03;5.80;;;5.20;;
48205;SDS011;33995;48.202;16.260;2022-07-29T07:52:48;6.17;;;5.57;;
48205;SDS011;33995;48.202;16.260;2022-07-29T07:55:29;6.00;;;5.23;;
48205;SDS011;33995;48.202;16.260;2022-07-29T07:58:18;6.13;;;5.17;;
48205;SDS011;33995;48.202;16.260;2022-07-29T08:00:47;6.33;;;5.33;;
48205;SDS011;33995;48.202;16.260;2022-07-29T08:03:18;5.60;;;5.13;;
48205;SDS011;33995;48.202;16.260;2022-07-29T08:05:47;5.50;;;5.00;;
48205;SDS011;33995;48.202;16.260;2022-07-29T08:08:18;7.13;;;5.40;;
48205;SDS011;33995;48.202;16.260;2022-07-29T08:10:48;6.13;;;5.40;;
48205;SDS011;33995;48.202;16.260;2022-07-29T08:13:37;5.53;;;5.03;;
48205;SDS011;33995;48.202;16.260;2022-07-29T08:16:06;5.53;;;5.07;;
48205;SDS011;33995;48.202;16.260;2022-07-29T08:18:42;5.57;;;5.17;;
48205;SDS011;33995;48.202;16.260;2022-07-29T08:21:14;5.60;;;5.10;;
48205;SDS011;33995;48.202;16.260;2022-07-29T08:23:43;5.80;;;4.80;;
48205;SDS011;33995;48.202;16.260;2022-07-29T08:26:27;5.40;;;5.00;;
48205;SDS011;33995;48.202;16.260;2022-07-29T08:28:57;5.50;;;4.93;;
48205;SDS011;33995;48.202;16.260;2022-07-29T08:31:25;5.83;;;5.23;;
48205;SDS011;33995;48.202;16.260;2022-07-29T08:34:04;6.03;;;5.37;;
48205;SDS011;33995;48.202;16.260;2022-07-29T08:36:33;6.03;;;5.43;;
48205;SDS011;33995;48.202;16.260;2022-07-29T08:39:04;8.77;;;5.23;;
48205;SDS011;33995;48.202;16.260;2022-07-29T08:41:33;5.50;;;4.93;;
48205;SDS011;33995;48.202;16.260;2022-07-29T08:44:02;5.13;;;4.73;;
48205;SDS011;33995;48.202;16.260;2022-07-29T08:46:33;5.27;;;4.83;;
48205;SDS011;33995;48.202;16.260;2022-07-29T08:49:07;5.40;;;5.00;;
48205;SDS011;33995;48.202;16.260;2022-07-29T08:51:39;5.73;;;4.97;;
48205;SDS011;33995;48.202;16.260;2022-07-29T08:54:16;5.10;;;4.60;;
48205;SDS011;33995;48.202;16.260;2022-07-29T08:56:47;5.20;;;4.80;;
48205;SDS011;33995;48.202;16.260;2022-07-29T08:59:22;5.17;;;4.67;;
48205;SDS011;33995;48.202;16.260;2022-07-29T09:01:58;6.30;;;4.90;;
48205;SDS011;33995;48.202;16.260;2022-07-29T09:04:31;6.00;;;5.40;;
48205;SDS011;33995;48.202;16.260;2022-07-29T09:07:06;6.27;;;5.10;;
48205;SDS011;33995;48.202;16.260;2022-07-29T09:09:36;5.60;;;4.77;;
48205;SDS011;33995;48.202;16.260;2022-07-29T09:12:11;4.97;;;4.53;;
48205;SDS011;33995;48.202;16.260;2022-07-29T09:14:54;5.27;;;4.87;;
48205;SDS011;33995;48.202;16.260;2022-07-29T09:17:44;5.50;;;4.80;;
48205;SDS011;33995;48.202;16.260;2022-07-29T09:20:19;5.50;;;5.10;;
48205;SDS011;33995;48.202;16.260;2022-07-29T09:22:51;5.30;;;4.90;;
48205;SDS011;33995;48.202;16.260;2022-07-29T09:25:36;5.10;;;4.63;;
48205;SDS011;33995;48.202;16.260;2022-07-29T09:28:14;5.23;;;4.83;;
48205;SDS011;33995;48.202;16.260;2022-07-29T09:30:56;5.00;;;4.60;;
48205;SDS011;33995;48.202;16.260;2022-07-29T09:33:30;5.20;;;4.70;;
48205;SDS011;33995;48.202;16.260;2022-07-29T09:36:08;5.23;;;4.73;;
48205;SDS011;33995;48.202;16.260;2022-07-29T09:38:37;5.40;;;4.80;;
48205;SDS011;33995;48.202;16.260;2022-07-29T09:41:07;5.43;;;4.97;;
48205;SDS011;33995;48.202;16.260;2022-07-29T09:43:56;5.13;;;4.73;;
48205;SDS011;33995;48.202;16.260;2022-07-29T09:46:31;5.10;;;4.70;;
48205;SDS011;33995;48.202;16.260;2022-07-29T09:49:12;5.13;;;4.67;;
48205;SDS011;33995;48.202;16.260;2022-07-29T09:51:43;5.00;;;4.50;;
48205;SDS011;33995;48.202;16.260;2022-07-29T09:54:26;5.30;;;4.90;;
48205;SDS011;33995;48.202;16.260;2022-07-29T09:56:55;4.70;;;4.30;;
48205;SDS011;33995;48.202;16.260;2022-07-29T09:59:24;5.20;;;4.70;;
48205;SDS011;33995;48.202;16.260;2022-07-29T10:01:56;4.50;;;4.20;;
48205;SDS011;33995;48.202;16.260;2022-07-29T10:04:40;4.97;;;4.40;;
48205;SDS011;33995;48.202;16.260;2022-07-29T10:07:09;4.60;;;4.20;;
48205;SDS011;33995;48.202;16.260;2022-07-29T10:09:38;5.03;;;4.50;;
48205;SDS011;33995;48.202;16.260;2022-07-29T10:12:08;5.20;;;4.70;;
48205;SDS011;33995;48.202;16.260;2022-07-29T10:14:46;5.20;;;4.80;;
48205;SDS011;33995;48.202;16.260;2022-07-29T10:17:16;6.40;;;5.07;;
48205;SDS011;33995;48.202;16.260;2022-07-29T10:19:49;5.90;;;5.40;;
48205;SDS011;33995;48.202;16.260;2022-07-29T10:22:20;5.10;;;4.70;;
48205;SDS011;33995;48.202;16.260;2022-07-29T10:25:11;5.10;;;4.70;;
48205;SDS011;33995;48.202;16.260;2022-07-29T10:27:42;5.20;;;4.80;;
48205;SDS011;33995;48.202;16.260;2022-07-29T10:30:17;5.40;;;4.90;;
48205;SDS011;33995;48.202;16.260;2022-07-29T10:42:25;5.40;;;4.90;;
48205;SDS011;33995;48.202;16.260;2022-07-29T10:45:03;5.63;;;4.80;;
48205;SDS011;33995;48.202;16.260;2022-07-29T10:47:33;5.40;;;5.00;;
48205;SDS011;33995;48.202;16.260;2022-07-29T10:50:08;5.03;;;4.63;;
48205;SDS011;33995;48.202;16.260;2022-07-29T10:55:34;5.63;;;4.63;;
48205;SDS011;33995;48.202;16.260;2022-07-29T10:58:21;5.00;;;4.60;;
48205;SDS011;33995;48.202;16.260;2022-07-29T11:00:52;5.17;;;4.77;;
48205;SDS011;33995;48.202;16.260;2022-07-29T11:06:20;4.57;;;4.27;;
48205;SDS011;33995;48.202;16.260;2022-07-29T11:15:20;5.00;;;4.60;;
48205;SDS011;33995;48.202;16.260;2022-07-29T11:23:32;5.40;;;4.90;;
48205;SDS011;33995;48.202;16.260;2022-07-29T11:26:16;5.43;;;4.93;;
48205;SDS011;33995;48.202;16.260;2022-07-29T11:31:53;5.00;;;4.57;;
48205;SDS011;33995;48.202;16.260;2022-07-29T11:35:12;5.30;;;4.77;;
48205;SDS011;33995;48.202;16.260;2022-07-29T11:41:40;6.30;;;4.53;;
48205;SDS011;33995;48.202;16.260;2022-07-29T11:43:54;5.40;;;4.90;;
48205;SDS011;33995;48.202;16.260;2022-07-29T11:49:23;4.97;;;4.57;;
48205;SDS011;33995;48.202;16.260;2022-07-29T11:51:59;5.17;;;4.67;;
48205;SDS011;33995;48.202;16.260;2022-07-29T11:54:38;5.00;;;4.60;;
48205;SDS011;33995;48.202;16.260;2022-07-29T11:57:27;5.93;;;4.60;;
48205;SDS011;33995;48.202;16.260;2022-07-29T12:00:06;5.63;;;5.10;;
48205;SDS011;33995;48.202;16.260;2022-07-29T12:02:40;5.20;;;4.70;;
48205;SDS011;33995;48.202;16.260;2022-07-29T12:05:36;5.23;;;4.73;;
48205;SDS011;33995;48.202;16.260;2022-07-29T12:08:21;5.60;;;5.10;;
48205;SDS011;33995;48.202;16.260;2022-07-29T12:10:53;5.53;;;5.03;;
48205;SDS011;33995;48.202;16.260;2022-07-29T12:13:24;5.10;;;4.70;;
48205;SDS011;33995;48.202;16.260;2022-07-29T12:16:05;5.40;;;4.90;;
48205;SDS011;33995;48.202;16.260;2022-07-29T12:18:41;5.20;;;4.70;;
48205;SDS011;33995;48.202;16.260;2022-07-29T12:21:11;5.07;;;4.60;;
48205;SDS011;33995;48.202;16.260;2022-07-29T12:23:51;5.30;;;4.80;;
48205;SDS011;33995;48.202;16.260;2022-07-29T12:26:21;5.40;;;5.00;;
48205;SDS011;33995;48.202;16.260;2022-07-29T12:28:52;5.70;;;5.20;;
48205;SDS011;33995;48.202;16.260;2022-07-29T12:31:22;6.03;;;5.27;;
48205;SDS011;33995;48.202;16.260;2022-07-29T12:34:13;6.57;;;5.10;;
48205;SDS011;33995;48.202;16.260;2022-07-29T12:36:43;5.83;;;5.30;;
48205;SDS011;33995;48.202;16.260;2022-07-29T12:39:12;5.47;;;4.97;;
48205;SDS011;33995;48.202;16.260;2022-07-29T12:41:43;5.47;;;4.97;;
48205;SDS011;33995;48.202;16.260;2022-07-29T12:44:42;5.13;;;4.73;;
48205;SDS011;33995;48.202;16.260;2022-07-29T12:47:32;5.43;;;4.93;;
48205;SDS011;33995;48.202;16.260;2022-07-29T12:50:20;5.73;;;5.20;;
48205;SDS011;33995;48.202;16.260;2022-07-29T12:52:54;5.43;;;4.90;;
48205;SDS011;33995;48.202;16.260;2022-07-29T12:55:47;5.13;;;4.57;;
48205;SDS011;33995;48.202;16.260;2022-07-29T12:58:40;5.37;;;4.87;;
48205;SDS011;33995;48.202;16.260;2022-07-29T13:01:17;5.50;;;5.00;;
48205;SDS011;33995;48.202;16.260;2022-07-29T13:06:44;5.17;;;4.77;;
48205;SDS011;33995;48.202;16.260;2022-07-29T13:09:45;5.33;;;4.93;;
48205;SDS011;33995;48.202;16.260;2022-07-29T13:12:22;5.40;;;5.00;;
48205;SDS011;33995;48.202;16.260;2022-07-29T13:15:12;5.30;;;4.90;;
48205;SDS011;33995;48.202;16.260;2022-07-29T13:17:52;5.40;;;4.90;;
48205;SDS011;33995;48.202;16.260;2022-07-29T13:20:34;5.30;;;4.80;;
48205;SDS011;33995;48.202;16.260;2022-07-29T13:23:03;5.07;;;4.67;;
48205;SDS011;33995;48.202;16.260;2022-07-29T13:25:34;5.60;;;5.20;;
48205;SDS011;33995;48.202;16.260;2022-07-29T13:28:08;5.80;;;5.30;;
48205;SDS011;33995;48.202;16.260;2022-07-29T13:30:37;5.33;;;4.83;;
48205;SDS011;33995;48.202;16.260;2022-07-29T13:33:11;5.20;;;4.80;;
48205;SDS011;33995;48.202;16.260;2022-07-29T13:35:41;5.83;;;5.13;;
48205;SDS011;33995;48.202;16.260;2022-07-29T13:38:12;6.10;;;5.60;;
48205;SDS011;33995;48.202;16.260;2022-07-29T13:40:42;5.73;;;5.10;;
48205;SDS011;33995;48.202;16.260;2022-07-29T13:43:17;6.00;;;5.40;;
48205;SDS011;33995;48.202;16.260;2022-07-29T13:45:44;5.90;;;5.30;;
48205;SDS011;33995;48.202;16.260;2022-07-29T13:48:17;7.60;;;6.33;;
48205;SDS011;33995;48.202;16.260;2022-07-29T13:50:46;6.93;;;5.73;;
48205;SDS011;33995;48.202;16.260;2022-07-29T13:53:19;6.23;;;5.73;;
48205;SDS011;33995;48.202;16.260;2022-07-29T13:55:54;6.50;;;6.00;;
48205;SDS011;33995;48.202;16.260;2022-07-29T13:58:24;6.93;;;6.30;;
48205;SDS011;33995;48.202;16.260;2022-07-29T14:00:53;7.40;;;6.70;;
48205;SDS011;33995;48.202;16.260;2022-07-29T14:03:23;7.67;;;7.00;;
48205;SDS011;33995;48.202;16.260;2022-07-29T14:05:52;7.97;;;7.20;;
48205;SDS011;33995;48.202;16.260;2022-07-29T14:08:22;7.40;;;6.70;;
48205;SDS011;33995;48.202;16.260;2022-07-29T14:10:51;7.20;;;6.60;;
48205;SDS011;33995;48.202;16.260;2022-07-29T14:13:21;7.90;;;7.13;;
48205;SDS011;33995;48.202;16.260;2022-07-29T14:15:52;9.03;;;7.23;;
48205;SDS011;33995;48.202;16.260;2022-07-29T14:18:23;8.63;;;7.77;;
48205;SDS011;33995;48.202;16.260;2022-07-29T14:20:52;8.80;;;7.90;;
48205;SDS011;33995;48.202;16.260;2022-07-29T14:23:22;9.50;;;8.60;;
48205;SDS011;33995;48.202;16.260;2022-07-29T14:25:52;9.03;;;7.67;;
48205;SDS011;33995;48.202;16.260;2022-07-29T14:28:21;9.80;;;8.90;;
48205;SDS011;33995;48.202;16.260;2022-07-29T14:31:00;9.50;;;8.60;;
48205;SDS011;33995;48.202;16.260;2022-07-29T14:33:32;8.70;;;7.90;;
48205;SDS011;33995;48.202;16.260;2022-07-29T14:36:01;9.03;;;8.23;;
48205;SDS011;33995;48.202;16.260;2022-07-29T14:38:44;10.27;;;9.27;;
48205;SDS011;33995;48.202;16.260;2022-07-29T14:41:15;9.73;;;8.83;;
48205;SDS011;33995;48.202;16.260;2022-07-29T14:43:48;9.83;;;9.03;;
48205;SDS011;33995;48.202;16.260;2022-07-29T14:46:31;9.10;;;8.37;;
48205;SDS011;33995;48.202;16.260;2022-07-29T14:49:02;10.17;;;9.23;;
48205;SDS011;33995;48.202;16.260;2022-07-29T14:51:45;10.10;;;9.10;;
48205;SDS011;33995;48.202;16.260;2022-07-29T14:54:15;9.83;;;8.83;;
48205;SDS011;33995;48.202;16.260;2022-07-29T14:56:43;9.80;;;9.00;;
48205;SDS011;33995;48.202;16.260;2022-07-29T14:59:14;9.43;;;8.63;;
48205;SDS011;33995;48.202;16.260;2022-07-29T15:01:45;9.40;;;8.60;;
48205;SDS011;33995;48.202;16.260;2022-07-29T15:04:27;9.03;;;8.20;;
48205;SDS011;33995;48.202;16.260;2022-07-29T15:06:54;9.03;;;8.23;;
48205;SDS011;33995;48.202;16.260;2022-07-29T15:09:24;9.10;;;8.40;;
48205;SDS011;33995;48.202;16.260;2022-07-29T15:11:52;9.37;;;8.47;;
48205;SDS011;33995;48.202;16.260;2022-07-29T15:14:23;8.87;;;8.13;;
48205;SDS011;33995;48.202;16.260;2022-07-29T15:16:50;9.73;;;8.83;;
48205;SDS011;33995;48.202;16.260;2022-07-29T15:19:20;9.07;;;8.27;;
48205;SDS011;33995;48.202;16.260;2022-07-29T15:21:49;9.20;;;8.40;;
48205;SDS011;33995;48.202;16.260;2022-07-29T15:24:17;9.23;;;8.53;;
48205;SDS011;33995;48.202;16.260;2022-07-29T15:26:47;9.50;;;8.47;;
48205;SDS011;33995;48.202;16.260;2022-07-29T15:29:17;10.10;;;9.30;;
48205;SDS011;33995;48.202;16.260;2022-07-29T15:31:46;10.10;;;9.13;;
48205;SDS011;33995;48.202;16.260;2022-07-29T15:34:29;9.37;;;8.40;;
48205;SDS011;33995;48.202;16.260;2022-07-29T15:37:01;9.37;;;8.67;;
48205;SDS011;33995;48.202;16.260;2022-07-29T15:39:45;9.80;;;8.90;;
48205;SDS011;33995;48.202;16.260;2022-07-29T15:42:15;9.60;;;8.70;;
48205;SDS011;33995;48.202;16.260;2022-07-29T15:44:46;9.17;;;8.37;;
48205;SDS011;33995;48.202;16.260;2022-07-29T15:47:17;9.23;;;8.37;;
48205;SDS011;33995;48.202;16.260;2022-07-29T15:49:46;9.00;;;8.20;;
48205;SDS011;33995;48.202;16.260;2022-07-29T15:52:21;9.50;;;8.80;;
48205;SDS011;33995;48.202;16.260;2022-07-29T15:54:53;9.90;;;9.10;;
48205;SDS011;33995;48.202;16.260;2022-07-29T15:57:25;8.80;;;8.10;;
48205;SDS011;33995;48.202;16.260;2022-07-29T15:59:53;9.83;;;9.03;;
48205;SDS011;33995;48.202;16.260;2022-07-29T16:02:24;9.70;;;8.43;;
48205;SDS011;33995;48.202;16.260;2022-07-29T16:04:52;9.80;;;8.93;;
48205;SDS011;33995;48.202;16.260;2022-07-29T16:07:21;8.47;;;7.77;;
48205;SDS011;33995;48.202;16.260;2022-07-29T16:09:57;9.67;;;8.80;;